Los Ebanos, Texas
Current Conditions -  °F | °C
As of 3:53 PM on Monday 22 Dec 2014 (Local Time) from KMFE Reporting Station
Clear Clear  
Wind Chill: 76°   Ceiling: Unl
Heat Index: 76°   Visibility: 10mi
Dew Point: 62°   Wind: 3mph
Humidity: 62%   Direction: 170°S
Pressure: 29.64"   Gusts: NA
Location:  26.24°N, 98.56°W
Report Text: KMFE 222153Z 17003KT 10SM CLR 24/17 A2964 RMK AO2 SLP036 T02440167
Loading
Personal Weather Stations






























Interactive Weather Map New forecast layout! Learn more

10-Day Weather Forecast

Advertisements
Track Severe Weather on mobile